createdAt,value
2018-12-14T00:01:11.219Z,13.90
2018-12-14T00:03:39.855Z,14.50
2018-12-14T00:06:08.376Z,13.90
2018-12-14T00:08:37.376Z,14.10
2018-12-14T00:11:05.948Z,14.67
2018-12-14T00:13:34.428Z,14.00
2018-12-14T00:16:03.677Z,13.93
2018-12-14T00:18:32.234Z,14.80
2018-12-14T00:21:01.736Z,14.97
2018-12-14T00:23:30.963Z,14.97
2018-12-14T00:26:00.017Z,14.73
2018-12-14T00:28:28.513Z,14.53
2018-12-14T00:30:57.147Z,15.67
2018-12-14T00:33:25.719Z,14.63
2018-12-14T00:35:54.181Z,13.87
2018-12-14T00:38:22.859Z,14.13
2018-12-14T00:40:52.048Z,14.43
2018-12-14T00:43:20.654Z,14.50
2018-12-14T00:45:49.231Z,14.07
2018-12-14T00:48:17.705Z,14.77
2018-12-14T00:50:46.247Z,14.23
2018-12-14T00:53:15.514Z,15.47
2018-12-14T00:55:44.901Z,15.13
2018-12-14T00:58:14.131Z,15.03
2018-12-14T01:00:43.385Z,16.70
2018-12-14T01:03:11.951Z,14.83
2018-12-14T01:05:40.451Z,14.13
2018-12-14T01:08:09.319Z,14.57
2018-12-14T01:10:37.797Z,14.30
2018-12-14T01:13:06.378Z,13.90
2018-12-14T01:15:35.608Z,14.97
2018-12-14T01:18:04.047Z,12.93
2018-12-14T01:20:33.080Z,15.00
2018-12-14T01:23:01.862Z,15.03
2018-12-14T01:25:30.734Z,15.47
2018-12-14T01:28:00.058Z,14.57
2018-12-14T01:30:28.739Z,13.73
2018-12-14T01:32:57.303Z,14.10
2018-12-14T01:35:25.816Z,15.13
2018-12-14T01:37:54.359Z,14.03
2018-12-14T01:40:23.563Z,13.20
2018-12-14T01:42:52.084Z,14.43
2018-12-14T01:45:20.696Z,13.83
2018-12-14T01:47:49.344Z,13.20
2018-12-14T01:50:17.933Z,14.00
2018-12-14T01:52:46.550Z,13.77
2018-12-14T01:55:15.094Z,13.63
2018-12-14T01:57:43.635Z,14.90
2018-12-14T02:00:12.262Z,13.63
2018-12-14T02:02:40.820Z,14.57
2018-12-14T02:05:09.383Z,14.37
2018-12-14T02:07:38.194Z,13.97
2018-12-14T02:10:06.753Z,14.77
2018-12-14T02:12:35.254Z,13.60
2018-12-14T02:15:03.973Z,14.90
2018-12-14T02:17:32.457Z,14.70
2018-12-14T02:20:01.756Z,14.20
2018-12-14T02:22:30.260Z,15.03
2018-12-14T02:24:59.835Z,14.03
2018-12-14T02:27:28.369Z,13.53
2018-12-14T02:29:56.850Z,14.13
2018-12-14T02:32:25.547Z,14.10
2018-12-14T02:34:54.061Z,12.77
2018-12-14T02:37:22.514Z,13.50
2018-12-14T02:39:50.981Z,13.57
2018-12-14T02:42:19.611Z,14.87
2018-12-14T02:44:48.251Z,14.40
2018-12-14T02:47:17.348Z,14.63
2018-12-14T02:49:45.901Z,14.83
2018-12-14T02:52:14.393Z,15.40
2018-12-14T02:54:42.904Z,14.23
2018-12-14T02:57:11.659Z,12.77
2018-12-14T02:59:40.146Z,13.40
2018-12-14T03:02:08.857Z,13.43
2018-12-14T03:04:37.990Z,13.90
2018-12-14T03:07:06.480Z,14.43
2018-12-14T03:09:35.536Z,13.63
2018-12-14T03:12:04.220Z,13.53
2018-12-14T03:14:32.844Z,12.77
2018-12-14T03:17:01.539Z,11.53
2018-12-14T03:19:30.073Z,12.80
2018-12-14T03:21:58.615Z,12.60
2018-12-14T03:24:27.783Z,13.60
2018-12-14T03:26:56.235Z,12.53
2018-12-14T03:29:25.013Z,13.07
2018-12-14T03:31:53.629Z,11.90
2018-12-14T03:34:22.131Z,12.50
2018-12-14T03:36:50.976Z,12.00
2018-12-14T03:39:19.600Z,11.97
2018-12-14T03:41:48.105Z,12.17
2018-12-14T03:44:16.897Z,12.33
2018-12-14T03:46:46.185Z,12.53
2018-12-14T03:49:15.452Z,12.87
2018-12-14T03:51:44.500Z,13.03
2018-12-14T03:54:13.227Z,12.83
2018-12-14T03:56:42.401Z,12.90
2018-12-14T03:59:10.973Z,12.10
2018-12-14T04:01:39.560Z,12.43
2018-12-14T04:04:08.027Z,12.90
2018-12-14T04:06:36.737Z,14.17
2018-12-14T04:09:06.605Z,13.30
2018-12-14T04:11:35.146Z,12.60
2018-12-14T04:14:03.880Z,13.33
2018-12-14T04:16:32.344Z,12.13
2018-12-14T04:19:01.827Z,12.47
2018-12-14T04:21:30.299Z,13.73
2018-12-14T04:23:58.917Z,12.87
2018-12-14T04:26:27.409Z,12.50
2018-12-14T04:28:55.979Z,12.10
2018-12-14T04:31:24.443Z,12.97
2018-12-14T04:33:53.023Z,12.63
2018-12-14T04:36:21.722Z,12.03
2018-12-14T04:38:50.807Z,12.20
2018-12-14T04:41:19.324Z,13.00
2018-12-14T04:43:48.488Z,9.77
2018-12-14T04:46:17.554Z,11.93
2018-12-14T04:48:46.855Z,12.17
2018-12-14T04:51:15.783Z,12.10
2018-12-14T04:53:44.255Z,12.47
2018-12-14T04:56:13.544Z,11.57
2018-12-14T04:58:42.612Z,11.83
2018-12-14T05:01:11.093Z,11.90
2018-12-14T05:03:39.605Z,12.53
2018-12-14T05:06:08.290Z,12.60
2018-12-14T05:08:37.573Z,12.90
2018-12-14T05:11:06.148Z,13.50
2018-12-14T05:13:35.030Z,11.70
2018-12-14T05:16:04.664Z,13.33
2018-12-14T05:18:33.230Z,11.67
2018-12-14T05:21:02.384Z,11.80
2018-12-14T05:23:30.860Z,12.30
2018-12-14T05:26:00.361Z,11.50
2018-12-14T05:28:29.161Z,12.13
2018-12-14T05:30:57.672Z,11.37
2018-12-14T05:33:26.164Z,13.03
2018-12-14T05:35:54.674Z,12.93
2018-12-14T05:38:23.520Z,12.10
2018-12-14T05:40:52.593Z,12.40
2018-12-14T05:43:21.799Z,10.83
2018-12-14T05:45:50.382Z,12.13
2018-12-14T05:48:18.954Z,12.57
2018-12-14T05:50:48.709Z,10.90
2018-12-14T05:53:18.016Z,12.30
2018-12-14T05:55:46.544Z,13.27
2018-12-14T05:58:15.781Z,11.50
2018-12-14T06:00:44.671Z,12.30
2018-12-14T06:03:13.956Z,12.67
2018-12-14T06:05:42.875Z,10.90
2018-12-14T06:08:11.420Z,11.17
2018-12-14T06:10:39.900Z,10.93
2018-12-14T06:13:09.157Z,12.13
2018-12-14T06:15:38.778Z,10.37
2018-12-14T06:18:07.520Z,11.90
2018-12-14T06:20:36.230Z,12.03
2018-12-14T06:23:04.880Z,11.90
2018-12-14T06:25:33.742Z,10.70
2018-12-14T06:28:02.306Z,11.30
2018-12-14T06:30:30.807Z,11.50
2018-12-14T06:32:59.635Z,11.73
2018-12-14T06:35:28.941Z,11.63
2018-12-14T06:37:57.628Z,10.93
2018-12-14T06:40:26.174Z,10.00
2018-12-14T06:42:54.736Z,10.93
2018-12-14T06:45:23.301Z,10.47
2018-12-14T06:47:51.904Z,11.17
2018-12-14T06:50:21.303Z,11.63
2018-12-14T06:52:50.450Z,11.57
2018-12-14T06:55:19.124Z,11.73
2018-12-14T06:57:48.215Z,11.70
2018-12-14T07:00:16.939Z,11.13
2018-12-14T07:02:45.563Z,11.90
2018-12-14T07:05:14.433Z,12.07
2018-12-14T07:07:42.946Z,12.47
2018-12-14T07:10:12.952Z,11.63
2018-12-14T07:12:41.432Z,12.60
2018-12-14T07:15:10.163Z,12.30
2018-12-14T07:17:39.320Z,11.83
2018-12-14T07:20:08.018Z,11.57
2018-12-14T07:22:36.463Z,11.90
2018-12-14T07:25:05.245Z,10.87
2018-12-14T07:27:33.856Z,12.47
2018-12-14T07:30:02.808Z,11.23
2018-12-14T07:32:31.718Z,10.97
2018-12-14T07:35:00.224Z,10.90
2018-12-14T07:37:29.520Z,10.60
2018-12-14T07:39:58.761Z,11.50
2018-12-14T07:42:28.192Z,11.20
2018-12-14T07:44:56.751Z,10.77
2018-12-14T07:47:25.419Z,11.87
2018-12-14T07:49:54.674Z,11.47
2018-12-14T07:52:23.164Z,10.60
2018-12-14T07:54:51.760Z,10.30
2018-12-14T07:57:20.304Z,11.30
2018-12-14T07:59:48.893Z,10.80
2018-12-14T08:02:17.473Z,11.53
2018-12-14T08:04:46.096Z,11.47
2018-12-14T08:07:15.191Z,11.27
2018-12-14T08:09:43.864Z,10.00
2018-12-14T08:12:12.379Z,11.37
2018-12-14T08:14:41.220Z,12.10
2018-12-14T08:17:09.811Z,11.03
2018-12-14T08:19:38.470Z,11.50
2018-12-14T08:22:07.299Z,10.83
2018-12-14T08:24:36.048Z,11.40
2018-12-14T08:27:04.533Z,11.33
2018-12-14T08:29:34.340Z,11.00
2018-12-14T08:32:02.857Z,10.23
2018-12-14T08:34:31.721Z,12.03
2018-12-14T08:37:01.147Z,10.77
2018-12-14T08:39:30.298Z,11.53
2018-12-14T08:41:58.801Z,10.23
2018-12-14T08:44:27.994Z,11.37
2018-12-14T08:46:56.588Z,9.93
2018-12-14T08:49:25.176Z,10.33
2018-12-14T08:51:54.524Z,9.90
2018-12-14T08:54:23.789Z,10.07
2018-12-14T08:56:52.858Z,9.90
2018-12-14T08:59:22.098Z,10.10
2018-12-14T09:01:51.330Z,9.77
2018-12-14T09:04:20.572Z,10.77
2018-12-14T09:06:49.105Z,10.00
2018-12-14T09:09:17.693Z,10.47
2018-12-14T09:11:46.206Z,9.20
2018-12-14T09:14:15.123Z,10.10
2018-12-14T09:16:44.342Z,10.67
2018-12-14T09:19:12.896Z,9.87
2018-12-14T09:21:42.197Z,10.43
2018-12-14T09:24:11.548Z,9.40
2018-12-14T09:26:40.862Z,10.13
2018-12-14T09:29:09.688Z,9.97
2018-12-14T09:31:38.240Z,10.37
2018-12-14T09:34:06.848Z,10.20
2018-12-14T09:36:36.100Z,10.37
2018-12-14T09:39:06.019Z,10.23
2018-12-14T09:41:34.540Z,12.03
2018-12-14T09:44:03.213Z,9.77
2018-12-14T09:46:36.993Z,10.80
2018-12-14T09:49:03.803Z,9.97
2018-12-14T09:51:33.755Z,8.90
2018-12-14T09:54:02.530Z,9.13
2018-12-14T09:56:32.316Z,10.20
2018-12-14T09:59:01.135Z,9.53
2018-12-14T10:01:30.428Z,9.33
2018-12-14T10:03:59.114Z,10.00
2018-12-14T10:06:28.491Z,10.57
2018-12-14T10:08:57.333Z,9.77
2018-12-14T10:11:25.888Z,10.07
2018-12-14T10:14:00.664Z,10.00
2018-12-14T10:16:24.930Z,10.00
2018-12-14T10:18:53.851Z,11.73
2018-12-14T10:21:22.360Z,11.27
2018-12-14T10:23:51.750Z,10.37
2018-12-14T10:26:20.264Z,11.97
2018-12-14T10:28:49.388Z,10.77
2018-12-14T10:31:18.447Z,11.43
2018-12-14T10:33:47.001Z,11.50
2018-12-14T10:36:15.838Z,10.07
2018-12-14T10:38:45.172Z,11.40
2018-12-14T10:41:13.770Z,11.97
2018-12-14T10:43:42.223Z,12.40
2018-12-14T10:46:10.859Z,10.40
2018-12-14T10:48:40.313Z,11.00
2018-12-14T10:51:08.827Z,10.83
2018-12-14T10:53:37.473Z,10.13
2018-12-14T10:56:06.036Z,11.03
2018-12-14T10:58:34.511Z,11.00
2018-12-14T11:01:08.448Z,11.70
2018-12-14T11:03:37.240Z,11.33
2018-12-14T11:06:05.851Z,11.07
2018-12-14T11:08:34.380Z,12.17
2018-12-14T11:11:02.938Z,11.10
2018-12-14T11:13:31.589Z,10.83
2018-12-14T11:16:00.148Z,12.03
2018-12-14T11:18:28.680Z,11.47
2018-12-14T11:20:58.084Z,11.13
2018-12-14T11:23:27.550Z,11.97
2018-12-14T11:25:56.423Z,12.47
2018-12-14T11:28:25.351Z,10.97
2018-12-14T11:30:53.986Z,12.47
2018-12-14T11:33:22.541Z,11.87
2018-12-14T11:35:51.017Z,11.97
2018-12-14T11:38:19.797Z,11.50
2018-12-14T11:40:48.859Z,12.40
2018-12-14T11:43:18.231Z,12.20
2018-12-14T11:45:46.787Z,12.20
2018-12-14T11:48:15.446Z,12.27
2018-12-14T11:50:44.050Z,11.90
2018-12-14T11:53:16.836Z,12.00
2018-12-14T11:55:45.403Z,11.97
2018-12-14T11:58:13.912Z,11.27
2018-12-14T12:00:42.700Z,12.23
2018-12-14T12:03:11.207Z,11.40
2018-12-14T12:05:39.925Z,11.90
2018-12-14T12:08:10.481Z,13.00
2018-12-14T12:10:40.291Z,11.47
2018-12-14T12:13:09.379Z,11.80
2018-12-14T12:15:38.089Z,11.43
2018-12-14T12:18:06.571Z,11.63
2018-12-14T12:20:35.092Z,12.13
2018-12-14T12:23:03.641Z,12.03
2018-12-14T12:25:32.273Z,12.37
2018-12-14T12:28:00.854Z,11.00
2018-12-14T12:30:29.355Z,11.00
2018-12-14T12:32:58.655Z,10.20
2018-12-14T12:35:27.352Z,10.17
2018-12-14T12:37:56.085Z,10.87
2018-12-14T12:40:24.809Z,11.77
2018-12-14T12:42:53.564Z,10.73
2018-12-14T12:45:22.822Z,9.57
2018-12-14T12:47:51.544Z,11.13
2018-12-14T12:50:20.762Z,11.20
2018-12-14T12:52:49.356Z,10.50
2018-12-14T12:55:18.421Z,11.50
2018-12-14T12:57:47.060Z,11.03
2018-12-14T13:00:16.255Z,10.53
2018-12-14T13:02:44.809Z,10.77
2018-12-14T13:05:13.402Z,10.80
2018-12-14T13:07:42.019Z,10.77
2018-12-14T13:10:10.604Z,10.53
2018-12-14T13:12:39.287Z,10.83
2018-12-14T13:15:08.421Z,10.97
2018-12-14T13:17:37.478Z,11.13
2018-12-14T13:20:06.022Z,10.37
2018-12-14T13:22:35.778Z,9.23
2018-12-14T13:25:04.704Z,11.03
2018-12-14T13:27:33.815Z,10.40
2018-12-14T13:30:03.037Z,11.37
2018-12-14T13:32:31.802Z,10.67
2018-12-14T13:35:00.349Z,11.80
2018-12-14T13:37:28.867Z,10.53
2018-12-14T13:39:57.567Z,11.83
2018-12-14T13:42:26.296Z,10.80
2018-12-14T13:44:54.968Z,11.07
2018-12-14T13:47:23.754Z,12.30
2018-12-14T13:49:52.445Z,12.17
2018-12-14T13:52:22.358Z,10.77
2018-12-14T13:54:52.454Z,10.83
2018-12-14T13:57:20.964Z,11.70
2018-12-14T13:59:50.465Z,10.87
2018-12-14T14:02:19.003Z,9.60
2018-12-14T14:04:48.164Z,9.07
2018-12-14T14:07:16.712Z,12.07
2018-12-14T14:09:45.692Z,10.93
2018-12-14T14:12:15.098Z,10.97
2018-12-14T14:14:43.738Z,11.37
2018-12-14T14:17:12.438Z,11.33
2018-12-14T14:19:41.590Z,12.10
2018-12-14T14:22:11.836Z,11.23
2018-12-14T14:24:40.360Z,11.63
2018-12-14T14:27:08.992Z,10.17
2018-12-14T14:29:37.630Z,9.33
2018-12-14T14:32:06.476Z,12.80
2018-12-14T14:34:35.011Z,11.17
2018-12-14T14:37:03.777Z,12.33
2018-12-14T14:39:32.331Z,10.73
2018-12-14T14:42:00.835Z,11.43
2018-12-14T14:44:29.465Z,11.30
2018-12-14T14:46:58.312Z,11.63
2018-12-14T14:49:27.033Z,11.63
2018-12-14T14:51:55.701Z,11.87
2018-12-14T14:54:24.409Z,11.47
2018-12-14T14:56:52.974Z,11.10
2018-12-14T14:59:22.254Z,12.07
2018-12-14T15:01:50.893Z,11.47
2018-12-14T15:04:21.031Z,12.47
2018-12-14T15:06:49.672Z,11.37
2018-12-14T15:09:18.871Z,10.37
2018-12-14T15:11:48.091Z,10.67
2018-12-14T15:14:17.333Z,11.17
2018-12-14T15:16:46.000Z,11.73
2018-12-14T15:19:14.828Z,12.27
2018-12-14T15:21:44.167Z,12.00
2018-12-14T15:24:12.724Z,11.13
2018-12-14T15:26:41.385Z,12.57
2018-12-14T15:29:09.942Z,14.20
2018-12-14T15:31:38.549Z,12.73
2018-12-14T15:34:07.252Z,12.43
2018-12-14T15:36:35.968Z,12.60
2018-12-14T15:39:05.516Z,12.50
2018-12-14T15:41:34.101Z,11.47
2018-12-14T15:44:03.240Z,11.80
2018-12-14T15:46:32.619Z,11.80
2018-12-14T15:49:01.557Z,12.30
2018-12-14T15:51:30.318Z,11.70
2018-12-14T15:53:58.908Z,12.53
2018-12-14T15:56:27.455Z,11.03
2018-12-14T15:58:56.829Z,9.93
2018-12-14T16:01:26.049Z,10.80
2018-12-14T16:03:55.094Z,12.60
2018-12-14T16:06:23.955Z,12.53
2018-12-14T16:08:52.489Z,12.83
2018-12-14T16:11:21.591Z,12.17
2018-12-14T16:13:50.383Z,12.10
2018-12-14T16:16:19.022Z,11.87
2018-12-14T16:18:47.843Z,12.07
2018-12-14T16:21:16.655Z,11.37
2018-12-14T16:23:46.209Z,11.63
2018-12-14T16:26:14.944Z,12.03
2018-12-14T16:28:44.426Z,12.03
2018-12-14T16:31:12.961Z,11.60
2018-12-14T16:33:41.552Z,12.70
2018-12-14T16:36:10.042Z,11.97
2018-12-14T16:38:39.344Z,12.27
2018-12-14T16:41:07.869Z,12.17
2018-12-14T16:43:36.720Z,11.03
2018-12-14T16:46:06.254Z,12.10
2018-12-14T16:48:34.889Z,12.00
2018-12-14T16:51:03.437Z,11.63
2018-12-14T16:53:36.716Z,12.30
2018-12-14T16:56:06.000Z,12.57
2018-12-14T16:58:34.647Z,12.53
2018-12-14T17:01:03.305Z,11.50
2018-12-14T17:03:32.024Z,9.23
2018-12-14T17:06:00.695Z,12.80
2018-12-14T17:08:29.182Z,11.73
2018-12-14T17:10:58.393Z,11.00
2018-12-14T17:13:26.979Z,10.60
2018-12-14T17:15:55.625Z,12.10
2018-12-14T17:18:24.862Z,14.27
2018-12-14T17:20:54.233Z,12.70
2018-12-14T17:23:22.871Z,12.90
2018-12-14T17:25:51.739Z,11.90
2018-12-14T17:28:21.114Z,12.03
2018-12-14T17:30:49.792Z,12.57
2018-12-14T17:33:18.528Z,12.63
2018-12-14T17:35:47.461Z,13.60
2018-12-14T17:38:16.148Z,12.90
2018-12-14T17:40:44.918Z,12.00
2018-12-14T17:43:13.512Z,13.43
2018-12-14T17:45:42.757Z,11.53
2018-12-14T17:48:11.404Z,14.37
2018-12-14T17:50:40.164Z,15.13
2018-12-14T17:53:08.740Z,12.50
2018-12-14T17:55:37.420Z,11.90
2018-12-14T17:58:06.756Z,12.77
2018-12-14T18:00:35.536Z,12.67
2018-12-14T18:03:04.114Z,13.27
2018-12-14T18:05:33.409Z,11.40
2018-12-14T18:08:02.047Z,12.50
2018-12-14T18:10:30.786Z,10.40
2018-12-14T18:13:00.085Z,11.07
2018-12-14T18:15:28.714Z,12.87
2018-12-14T18:17:57.361Z,12.37
2018-12-14T18:20:26.002Z,10.83
2018-12-14T18:22:55.989Z,11.63
2018-12-14T18:25:25.255Z,10.87
2018-12-14T18:27:54.039Z,11.23
2018-12-14T18:30:22.654Z,12.70
2018-12-14T18:32:51.735Z,12.50
2018-12-14T18:35:20.561Z,11.47
2018-12-14T18:37:49.236Z,12.07
2018-12-14T18:40:17.898Z,11.53
2018-12-14T18:42:46.767Z,11.63
2018-12-14T18:45:15.364Z,12.23
2018-12-14T18:47:43.992Z,13.47
2018-12-14T18:50:12.561Z,12.90
2018-12-14T18:52:41.087Z,11.37
2018-12-14T18:55:10.027Z,12.10
2018-12-14T18:57:39.113Z,11.17
2018-12-14T19:00:09.839Z,13.23
2018-12-14T19:02:38.487Z,12.33
2018-12-14T19:05:07.945Z,12.80
2018-12-14T19:07:37.087Z,12.27
2018-12-14T19:10:06.433Z,12.60
2018-12-14T19:12:35.493Z,11.30
2018-12-14T19:15:04.709Z,12.37
2018-12-14T19:17:34.843Z,10.83
2018-12-14T19:20:03.655Z,12.17
2018-12-14T19:22:33.467Z,12.67
2018-12-14T19:25:02.617Z,9.57
2018-12-14T19:27:31.157Z,12.37
2018-12-14T19:30:00.234Z,12.10
2018-12-14T19:32:28.880Z,12.10
2018-12-14T19:34:57.447Z,13.80
2018-12-14T19:37:26.288Z,11.57
2018-12-14T19:39:55.009Z,12.30
2018-12-14T19:42:23.545Z,13.80
2018-12-14T19:44:52.112Z,12.07
2018-12-14T19:47:21.077Z,12.57
2018-12-14T19:49:49.622Z,12.47
2018-12-14T19:52:18.383Z,11.50
2018-12-14T19:54:46.955Z,12.97
2018-12-14T19:57:16.718Z,12.60
2018-12-14T19:59:45.426Z,11.53
2018-12-14T20:02:14.108Z,12.97
2018-12-14T20:04:42.709Z,12.37
2018-12-14T20:07:11.452Z,11.63
2018-12-14T20:09:40.237Z,10.90
2018-12-14T20:12:08.933Z,12.57
2018-12-14T20:14:37.530Z,11.60
2018-12-14T20:17:12.549Z,11.70
2018-12-14T20:19:41.221Z,10.23
2018-12-14T20:22:09.864Z,11.10
2018-12-14T20:24:39.353Z,13.13
2018-12-14T20:27:07.896Z,12.37
2018-12-14T20:29:36.415Z,12.53
2018-12-14T20:32:05.783Z,11.53
2018-12-14T20:34:34.321Z,12.83
2018-12-14T20:37:02.856Z,12.20
2018-12-14T20:39:31.420Z,11.50
2018-12-14T20:42:00.236Z,11.43
2018-12-14T20:44:28.896Z,11.93
2018-12-14T20:46:57.467Z,11.47
2018-12-14T20:49:26.279Z,11.63
2018-12-14T20:51:54.816Z,10.33
2018-12-14T20:54:24.104Z,11.93
2018-12-14T20:56:52.598Z,11.50
2018-12-14T20:59:21.247Z,12.83
2018-12-14T21:01:49.770Z,12.70
2018-12-14T21:04:18.303Z,11.73
2018-12-14T21:06:46.949Z,11.27
2018-12-14T21:09:16.189Z,11.63
2018-12-14T21:11:44.696Z,12.10
2018-12-14T21:14:13.348Z,9.73
2018-12-14T21:16:41.908Z,8.93
2018-12-14T21:19:10.488Z,12.47
2018-12-14T21:21:39.265Z,11.77
2018-12-14T21:24:08.077Z,12.23
2018-12-14T21:26:36.792Z,12.27
2018-12-14T21:29:05.312Z,13.07
2018-12-14T21:31:34.491Z,13.90
2018-12-14T21:34:03.132Z,13.43
2018-12-14T21:36:31.799Z,14.40
2018-12-14T21:39:00.934Z,12.97
2018-12-14T21:41:29.403Z,12.47
2018-12-14T21:43:58.687Z,12.60
2018-12-14T21:46:32.639Z,12.00
2018-12-14T21:48:58.480Z,12.90
2018-12-14T21:51:27.310Z,13.60
2018-12-14T21:53:55.869Z,13.97
2018-12-14T21:56:24.451Z,13.33
2018-12-14T21:58:54.405Z,12.63
2018-12-14T22:01:23.032Z,12.20
2018-12-14T22:03:51.918Z,13.67
2018-12-14T22:06:20.500Z,13.40
2018-12-14T22:08:49.008Z,13.50
2018-12-14T22:11:24.985Z,12.30
2018-12-14T22:13:54.071Z,12.17
2018-12-14T22:16:23.297Z,11.83
2018-12-14T22:18:51.923Z,13.13
2018-12-14T22:21:20.488Z,12.20
2018-12-14T22:23:49.939Z,12.33
2018-12-14T22:26:18.563Z,12.77
2018-12-14T22:28:47.164Z,12.73
2018-12-14T22:31:15.695Z,9.83
2018-12-14T22:33:44.503Z,12.40
2018-12-14T22:36:13.027Z,11.67
2018-12-14T22:38:41.523Z,11.10
2018-12-14T22:41:10.001Z,11.80
2018-12-14T22:43:38.745Z,13.20
2018-12-14T22:46:08.055Z,10.90
2018-12-14T22:48:36.612Z,11.83
2018-12-14T22:51:05.082Z,12.23
2018-12-14T22:53:33.610Z,9.73
2018-12-14T22:56:02.253Z,11.00
2018-12-14T22:58:31.423Z,9.67
2018-12-14T23:01:00.980Z,10.97
2018-12-14T23:03:29.715Z,12.00
2018-12-14T23:05:59.058Z,9.60
2018-12-14T23:08:28.034Z,12.60
2018-12-14T23:10:56.632Z,11.10
2018-12-14T23:13:25.330Z,11.47
2018-12-14T23:15:53.963Z,12.97
2018-12-14T23:18:22.693Z,9.47
2018-12-14T23:20:51.630Z,12.03
2018-12-14T23:23:20.339Z,11.10
2018-12-14T23:25:49.090Z,11.13
2018-12-14T23:28:17.977Z,12.30
2018-12-14T23:30:46.710Z,12.17
2018-12-14T23:33:15.420Z,11.80
2018-12-14T23:35:44.674Z,11.30
2018-12-14T23:38:13.422Z,11.10
2018-12-14T23:40:42.306Z,11.43
2018-12-14T23:43:11.488Z,11.03
2018-12-14T23:45:40.132Z,9.83
2018-12-14T23:48:08.905Z,10.80
2018-12-14T23:50:43.953Z,10.17
2018-12-14T23:53:13.193Z,11.47
2018-12-14T23:55:42.393Z,12.30
2018-12-14T23:58:10.832Z,12.53
